Time;durP1;ratioP1;P1;durP2;ratioP2;P2;SDS_P1;SDS_P2;PMS_P1;PMS_P2;Temp;Humidity;BMP_temperature;BMP_pressure;BME280_temperature;BME280_humidity;BME280_pressure;Samples;Min_cycle;Max_cycle;Signal;HPM_P1;HPM_P2
2023/04/15 00:02:15;;;;;;;9.93;8.75;;;;;;;6.43;75.94;98082.94;4365652;32;34149;-85
2023/04/15 00:04:46;;;;;;;10.20;8.02;;;;;;;6.42;76.08;98088.06;4388369;32;33703;-85
2023/04/15 00:07:13;;;;;;;12.52;9.95;;;;;;;6.44;75.09;98086.34;4381052;32;33923;-85
2023/04/15 00:09:41;;;;;;;11.07;8.70;;;;;;;7.00;74.03;98086.09;4374452;32;34267;-86
2023/04/15 00:12:10;;;;;;;11.63;8.20;;;;;;;7.05;73.62;98094.75;4385367;32;33861;-86
2023/04/15 00:14:38;;;;;;;10.38;8.35;;;;;;;6.79;74.32;98084.19;4367655;32;33184;-87
2023/04/15 00:17:06;;;;;;;10.98;8.98;;;;;;;6.50;75.57;98083.88;4368642;32;33948;-86
2023/04/15 00:19:33;;;;;;;10.68;8.57;;;;;;;6.74;75.17;98089.31;4386632;32;33826;-85
2023/04/15 00:22:01;;;;;;;10.48;8.52;;;;;;;6.68;75.41;98091.81;4382810;32;33737;-86
2023/04/15 00:24:30;;;;;;;10.85;8.82;;;;;;;6.81;74.95;98090.22;4383853;32;33448;-85
2023/04/15 00:26:57;;;;;;;11.02;9.05;;;;;;;6.86;75.07;98093.72;4385542;32;33946;-86
2023/04/15 00:29:25;;;;;;;11.35;8.82;;;;;;;6.98;74.32;98093.84;4381583;32;33944;-86
2023/04/15 00:31:52;;;;;;;11.25;9.23;;;;;;;6.75;75.30;98085.00;4387860;32;34726;-86
2023/04/15 00:34:20;;;;;;;13.05;9.85;;;;;;;6.72;75.35;98085.84;4372449;32;34215;-86
2023/04/15 00:36:48;;;;;;;12.05;10.15;;;;;;;6.74;75.90;98081.56;4386159;32;34058;-85
2023/04/15 00:39:16;;;;;;;11.93;10.57;;;;;;;6.28;77.16;98078.44;4356305;32;34180;-87
2023/04/15 00:41:44;;;;;;;11.57;9.10;;;;;;;6.41;76.75;98073.47;4375663;32;34688;-86
2023/04/15 00:44:12;;;;;;;11.05;9.50;;;;;;;6.24;77.84;98083.56;4361783;32;33180;-85
2023/04/15 00:46:40;;;;;;;11.98;9.63;;;;;;;6.57;77.38;98080.53;4375142;32;34493;-86
2023/04/15 00:49:08;;;;;;;10.82;9.15;;;;;;;6.77;75.95;98076.44;4375515;32;34191;-85
2023/04/15 00:51:35;;;;;;;12.88;9.60;;;;;;;6.61;76.55;98086.56;4361658;32;34325;-86
2023/04/15 00:54:04;;;;;;;11.68;9.15;;;;;;;6.84;75.79;98090.25;4379390;32;33755;-86
2023/04/15 00:56:38;;;;;;;11.98;9.45;;;;;;;7.06;75.67;98087.03;4380337;32;34059;-85
2023/04/15 00:59:06;;;;;;;12.20;8.77;;;;;;;7.20;74.79;98079.44;4361316;32;34646;-86
2023/04/15 01:01:35;;;;;;;12.37;8.57;;;;;;;7.31;74.38;98082.06;4366282;32;33802;-87
2023/04/15 01:04:03;;;;;;;11.98;9.35;;;;;;;7.49;73.99;98076.22;4374684;32;34425;-86
2023/04/15 01:06:31;;;;;;;10.15;8.00;;;;;;;7.44;73.89;98083.91;4363943;32;34755;-86
2023/04/15 01:08:59;;;;;;;12.30;9.32;;;;;;;7.39;74.30;98079.59;4366611;32;34121;-86
2023/04/15 01:11:27;;;;;;;10.07;8.20;;;;;;;7.66;73.16;98066.88;4384780;32;34208;-87
2023/04/15 01:13:56;;;;;;;10.40;8.13;;;;;;;7.64;73.16;98066.00;4374533;32;33498;-86
2023/04/15 01:16:24;;;;;;;10.25;7.78;;;;;;;7.41;74.05;98068.41;4387728;32;34454;-86
2023/04/15 01:18:51;;;;;;;10.88;8.57;;;;;;;7.59;73.15;98070.28;4367643;32;33953;-86
2023/04/15 01:21:19;;;;;;;10.52;8.05;;;;;;;7.74;72.92;98064.34;4366472;32;34061;-87
2023/04/15 01:23:48;;;;;;;10.80;7.78;;;;;;;7.82;72.41;98072.16;4370813;32;32963;-87
2023/04/15 01:26:16;;;;;;;10.73;8.32;;;;;;;7.49;73.41;98077.06;4387574;32;33717;-86
2023/04/15 01:28:45;;;;;;;12.48;8.70;;;;;;;7.56;73.48;98083.16;4387584;32;34040;-86
2023/04/15 01:31:13;;;;;;;11.10;8.85;;;;;;;7.52;73.86;98077.09;4388981;32;34702;-85
2023/04/15 01:33:42;;;;;;;11.43;8.45;;;;;;;7.72;72.87;98074.66;4370870;32;33466;-85
2023/04/15 01:36:28;;;;;;;11.95;8.13;;;;;;;7.93;72.36;98078.22;4387623;32;34654;-86
2023/04/15 01:38:57;;;;;;;14.07;8.93;;;;;;;8.11;71.62;98077.47;4374586;32;34635;-86
2023/04/15 01:41:27;;;;;;;10.32;8.13;;;;;;;8.21;71.53;98079.22;4379318;32;34597;-85
2023/04/15 01:43:56;;;;;;;10.32;7.78;;;;;;;8.31;71.49;98081.00;4388581;32;34958;-86
2023/04/15 01:46:25;;;;;;;9.77;7.05;;;;;;;8.41;71.17;98077.66;4373898;32;34105;-85
2023/04/15 01:48:54;;;;;;;9.20;6.97;;;;;;;8.40;71.04;98081.06;4361453;32;33860;-87
2023/04/15 01:51:23;;;;;;;9.27;7.03;;;;;;;8.62;70.11;98092.34;4374414;32;34472;-87
2023/04/15 01:53:52;;;;;;;10.00;6.70;;;;;;;8.75;70.09;98082.88;4386041;32;34022;-86
2023/04/15 01:56:23;;;;;;;8.68;6.45;;;;;;;8.83;69.70;98088.09;4389378;32;34316;-86
2023/04/15 01:58:52;;;;;;;8.75;6.72;;;;;;;8.89;69.53;98088.09;4389163;32;34409;-86
2023/04/15 02:01:21;;;;;;;9.35;6.43;;;;;;;9.01;69.28;98090.69;4389082;32;34513;-87
2023/04/15 02:03:50;;;;;;;8.65;6.43;;;;;;;8.76;69.46;98082.91;4364220;32;34004;-86
2023/04/15 02:06:19;;;;;;;10.38;6.87;;;;;;;8.80;69.75;98093.25;4378860;32;34531;-86
2023/04/15 02:08:48;;;;;;;11.20;7.30;;;;;;;8.90;69.64;98082.97;4387146;32;36156;-86
2023/04/15 02:11:18;;;;;;;9.00;6.62;;;;;;;8.78;69.86;98088.94;4387611;32;34131;-86
2023/04/15 02:13:47;;;;;;;10.88;7.05;;;;;;;8.89;69.73;98094.13;4370646;32;34746;-86
2023/04/15 02:16:17;;;;;;;9.18;6.57;;;;;;;9.14;68.79;98087.28;4390600;32;34506;-87
2023/04/15 02:18:46;;;;;;;8.63;6.82;;;;;;;9.24;68.21;98078.69;4366841;32;34670;-87
2023/04/15 02:21:15;;;;;;;9.75;6.90;;;;;;;9.01;68.84;98091.56;4362521;32;35200;-87
2023/04/15 02:23:46;;;;;;;11.20;6.78;;;;;;;9.10;68.76;98085.56;4383798;32;33745;-86
2023/04/15 02:26:15;;;;;;;11.48;6.78;;;;;;;9.13;68.49;98077.81;4390912;32;34285;-86
2023/04/15 02:28:45;;;;;;;9.70;6.95;;;;;;;8.53;70.42;98087.16;4388854;32;34613;-85
2023/04/15 02:31:15;;;;;;;9.25;7.00;;;;;;;8.68;69.74;98087.19;4355971;32;35322;-86
2023/04/15 02:33:44;;;;;;;12.45;7.62;;;;;;;8.75;69.37;98088.94;4380050;32;34228;-86
2023/04/15 02:36:13;;;;;;;12.35;7.62;;;;;;;8.18;71.06;98097.28;4388818;32;33267;-86
2023/04/15 02:38:42;;;;;;;11.05;8.07;;;;;;;7.85;72.90;98091.09;4375106;32;34670;-86
2023/04/15 02:41:12;;;;;;;10.77;7.85;;;;;;;8.23;71.94;98096.47;4390798;32;34481;-86
2023/04/15 02:43:41;;;;;;;10.85;8.60;;;;;;;8.39;71.29;98099.16;4377306;32;34034;-86
2023/04/15 02:46:13;;;;;;;11.85;8.35;;;;;;;8.22;71.79;98096.44;4362783;32;34005;-86
2023/04/15 02:48:42;;;;;;;13.05;9.18;;;;;;;8.50;70.88;98097.47;4379363;32;35770;-87
2023/04/15 02:51:16;;;;;;;12.50;8.90;;;;;;;8.39;71.42;98083.66;4362786;32;34175;-86
2023/04/15 02:53:48;;;;;;;15.23;9.55;;;;;;;8.07;72.15;98084.34;4362633;32;34778;-87
2023/04/15 02:56:18;;;;;;;12.50;9.27;;;;;;;7.93;73.61;98083.41;4376101;32;34464;-85
2023/04/15 02:58:49;;;;;;;13.65;9.18;;;;;;;8.31;72.47;98090.47;4370192;32;35601;-85
2023/04/15 03:01:19;;;;;;;13.52;9.20;;;;;;;8.31;72.12;98081.00;4390631;32;34490;-86
2023/04/15 03:03:48;;;;;;;11.95;8.88;;;;;;;8.28;72.27;98083.56;4390462;32;34116;-87
2023/04/15 03:06:17;;;;;;;12.05;8.80;;;;;;;8.16;72.41;98078.34;4380556;32;35308;-85
2023/04/15 03:08:46;;;;;;;12.30;8.73;;;;;;;8.17;72.62;98078.34;4380650;32;34646;-86
2023/04/15 03:11:15;;;;;;;12.63;8.27;;;;;;;8.47;71.96;98081.94;4375579;32;34301;-86
2023/04/15 03:13:44;;;;;;;12.70;8.98;;;;;;;8.33;72.22;98083.56;4380481;32;34652;-85
2023/04/15 03:16:15;;;;;;;13.52;9.95;;;;;;;8.18;72.49;98082.69;4383937;32;35287;-86
2023/04/15 03:18:44;;;;;;;12.52;8.63;;;;;;;8.45;71.95;98081.09;4386315;32;34764;-87
2023/04/15 03:21:13;;;;;;;11.50;8.98;;;;;;;8.17;72.70;98080.94;4390380;32;34544;-86
2023/04/15 03:23:41;;;;;;;11.43;9.23;;;;;;;8.21;72.55;98079.22;4379672;32;33954;-85
2023/04/15 03:26:33;;;;;;;11.82;8.25;;;;;;;8.37;72.10;98080.16;4383240;32;34403;-85
2023/04/15 03:29:05;;;;;;;10.70;8.65;;;;;;;8.48;71.81;98088.84;4383375;32;34649;-85
2023/04/15 03:31:34;;;;;;;11.77;9.27;;;;;;;8.69;70.93;98088.91;4370135;32;34387;-85
2023/04/15 03:34:03;;;;;;;11.07;8.80;;;;;;;8.67;71.11;98085.44;4388396;32;33439;-85
2023/04/15 03:36:32;;;;;;;11.23;8.95;;;;;;;8.94;70.23;98082.09;4388988;32;35101;-85
2023/04/15 03:39:02;;;;;;;11.27;7.95;;;;;;;8.39;72.19;98078.47;4375084;32;35418;-85
2023/04/15 03:41:31;;;;;;;12.02;9.07;;;;;;;8.57;71.34;98078.56;4361572;32;34510;-85
2023/04/15 03:44:00;;;;;;;11.35;8.65;;;;;;;7.97;74.30;98082.56;4384847;32;32563;-85
2023/04/15 03:46:29;;;;;;;12.43;8.63;;;;;;;8.26;72.87;98083.56;4376097;32;35191;-86
2023/04/15 03:48:58;;;;;;;11.30;8.75;;;;;;;8.74;71.15;98082.03;4375544;32;35874;-86
2023/04/15 03:51:27;;;;;;;12.00;8.20;;;;;;;8.92;70.59;98078.63;4375654;32;34497;-86
2023/04/15 03:53:56;;;;;;;10.23;7.80;;;;;;;8.62;71.67;98082.00;4387554;32;34640;-85
2023/04/15 03:56:24;;;;;;;11.55;8.75;;;;;;;8.72;71.08;98070.00;4390511;32;34224;-84
2023/04/15 03:58:53;;;;;;;11.00;8.40;;;;;;;8.78;71.39;98077.72;4390414;32;35526;-85
2023/04/15 04:01:22;;;;;;;12.35;8.50;;;;;;;8.47;72.05;98074.19;4389785;32;34111;-85
2023/04/15 04:03:51;;;;;;;11.20;8.18;;;;;;;8.76;71.25;98077.75;4386530;32;34028;-86
2023/04/15 04:06:20;;;;;;;11.52;8.60;;;;;;;8.28;72.55;98076.69;4390547;32;35155;-86
2023/04/15 04:08:49;;;;;;;13.07;9.85;;;;;;;8.59;72.15;98076.81;4390366;32;34504;-85
2023/04/15 04:11:18;;;;;;;12.88;9.30;;;;;;;8.55;72.29;98072.50;4375819;32;34523;-85
2023/04/15 04:13:46;;;;;;;12.80;8.85;;;;;;;8.85;71.00;98076.91;4381434;32;35377;-85
2023/04/15 04:16:15;;;;;;;11.50;9.07;;;;;;;8.92;70.73;98080.34;4368007;32;35110;-85
2023/04/15 04:18:44;;;;;;;11.95;9.48;;;;;;;8.99;70.67;98072.63;4387380;32;34614;-86
2023/04/15 04:21:13;;;;;;;12.65;8.88;;;;;;;8.73;71.50;98076.88;4376642;32;34518;-84
2023/04/15 04:23:42;;;;;;;11.30;8.38;;;;;;;8.70;71.33;98082.03;4378805;32;34843;-85
2023/04/15 04:26:11;;;;;;;11.68;8.27;;;;;;;8.85;71.17;98083.78;4383682;32;34637;-85
2023/04/15 04:28:40;;;;;;;11.80;7.28;;;;;;;8.90;71.25;98087.22;4380522;32;34643;-86
2023/04/15 04:31:08;;;;;;;9.68;7.37;;;;;;;8.97;70.88;98078.63;4375327;32;34259;-86
2023/04/15 04:33:37;;;;;;;11.68;7.43;;;;;;;8.89;71.07;98080.34;4384689;32;34786;-85
2023/04/15 04:36:06;;;;;;;10.90;8.38;;;;;;;8.38;73.16;98092.25;4387507;32;35202;-86
2023/04/15 04:38:35;;;;;;;11.88;9.20;;;;;;;8.46;72.77;98085.41;4375021;32;34269;-86
2023/04/15 04:41:04;;;;;;;11.70;8.70;;;;;;;8.77;71.86;98089.81;4381683;32;35473;-86
2023/04/15 04:43:33;;;;;;;12.27;9.25;;;;;;;9.01;71.02;98091.56;4380136;32;33965;-84
2023/04/15 04:46:02;;;;;;;12.50;9.02;;;;;;;8.91;71.89;98083.81;4385453;32;35231;-86
2023/04/15 04:48:31;;;;;;;11.75;9.38;;;;;;;8.45;73.64;98084.53;4376052;32;35544;-85
2023/04/15 04:50:59;;;;;;;13.62;9.93;;;;;;;8.32;74.29;98084.44;4390093;32;34164;-85
2023/04/15 04:53:28;;;;;;;14.57;10.32;;;;;;;9.00;71.95;98084.69;4384355;32;33972;-85
2023/04/15 04:55:57;;;;;;;13.52;11.10;;;;;;;7.98;75.49;98089.44;4361473;32;35192;-85
2023/04/15 04:58:26;;;;;;;14.45;11.00;;;;;;;8.05;75.78;98093.78;4386054;32;34832;-86
2023/04/15 05:00:55;;;;;;;16.37;11.75;;;;;;;8.14;76.03;98090.38;4371339;32;34642;-85
2023/04/15 05:03:24;;;;;;;15.63;12.65;;;;;;;8.16;75.88;98081.78;4387912;32;34251;-86
2023/04/15 05:05:53;;;;;;;15.90;11.98;;;;;;;7.76;77.45;98086.72;4387570;32;34642;-85
2023/04/15 05:08:22;;;;;;;14.73;11.98;;;;;;;8.05;76.92;98089.47;4375663;32;35788;-85
2023/04/15 05:10:51;;;;;;;14.65;11.43;;;;;;;8.35;75.55;98093.06;4368130;32;35203;-86
2023/04/15 05:13:20;;;;;;;15.50;12.50;;;;;;;8.02;77.19;98091.19;4379254;32;33838;-84
2023/04/15 05:15:49;;;;;;;15.88;12.60;;;;;;;8.14;77.23;98093.81;4384219;32;34537;-85
2023/04/15 05:18:19;;;;;;;17.58;11.93;;;;;;;8.44;76.04;98097.44;4387479;32;35576;-85
2023/04/15 05:20:48;;;;;;;14.85;11.48;;;;;;;8.56;75.28;98092.34;4387160;32;34475;-87
2023/04/15 05:23:18;;;;;;;15.77;12.48;;;;;;;8.72;74.53;98088.94;4368284;32;33964;-86
2023/04/15 05:25:46;;;;;;;15.10;12.48;;;;;;;8.61;75.43;98095.78;4381403;32;35010;-85
2023/04/15 05:28:15;;;;;;;15.95;13.38;;;;;;;8.39;76.25;98104.31;4371584;32;34582;-86
2023/04/15 05:30:44;;;;;;;16.30;13.18;;;;;;;8.80;74.77;98096.72;4388010;32;34542;-86
2023/04/15 05:33:13;;;;;;;16.02;11.45;;;;;;;8.55;75.90;98094.91;4369461;32;34765;-85
2023/04/15 05:35:42;;;;;;;14.90;12.50;;;;;;;8.74;74.61;98102.69;4382657;32;34252;-84
2023/04/15 05:38:11;;;;;;;17.85;13.52;;;;;;;8.49;75.95;98109.53;4385186;32;34307;-85
2023/04/15 05:40:40;;;;;;;15.95;13.38;;;;;;;8.35;76.27;98105.13;4382177;32;34507;-86
2023/04/15 05:43:08;;;;;;;15.23;12.32;;;;;;;8.75;74.93;98113.91;4380167;32;34517;-86
2023/04/15 05:45:37;;;;;;;18.40;15.77;;;;;;;8.22;77.29;98107.66;4372022;32;34352;-86
2023/04/15 05:48:07;;;;;;;20.55;15.43;;;;;;;8.20;77.32;98114.50;4388488;32;35554;-86
2023/04/15 05:50:35;;;;;;;15.57;12.75;;;;;;;8.28;77.67;98118.00;4391143;32;35439;-84
2023/04/15 05:53:04;;;;;;;15.25;12.98;;;;;;;8.23;78.24;98114.53;4385891;32;34260;-85
2023/04/15 05:55:33;;;;;;;15.02;12.52;;;;;;;8.08;79.11;98114.44;4376723;32;35001;-84
2023/04/15 05:58:02;;;;;;;16.05;13.13;;;;;;;8.46;78.05;98118.97;4362548;32;34670;-84
2023/04/15 06:00:31;;;;;;;15.65;12.15;;;;;;;8.98;76.00;98122.59;4376341;32;35510;-86
2023/04/15 06:03:00;;;;;;;14.68;11.55;;;;;;;9.21;75.23;98125.22;4367651;32;34928;-84
2023/04/15 06:05:29;;;;;;;15.07;12.05;;;;;;;9.22;75.11;98121.78;4385511;32;35195;-85
2023/04/15 06:07:58;;;;;;;12.95;10.40;;;;;;;9.46;74.77;98130.41;4391399;32;34459;-84
2023/04/15 06:10:27;;;;;;;12.70;10.32;;;;;;;9.83;74.25;98127.81;4388355;32;34118;-86
2023/04/15 06:12:55;;;;;;;12.95;10.55;;;;;;;9.92;72.90;98126.06;4391232;32;34130;-86
2023/04/15 06:15:24;;;;;;;11.25;9.23;;;;;;;10.02;73.43;98132.09;4387196;32;34447;-86
2023/04/15 06:17:53;;;;;;;11.15;9.23;;;;;;;10.29;72.41;98125.19;4391284;32;34549;-85
2023/04/15 06:20:22;;;;;;;11.52;9.23;;;;;;;10.27;72.14;98126.94;4374646;32;34440;-86
2023/04/15 06:22:51;;;;;;;11.82;8.90;;;;;;;9.93;72.82;98121.78;4382714;32;34022;-84
2023/04/15 06:25:20;;;;;;;11.20;7.70;;;;;;;10.13;72.49;98127.78;4389670;32;34432;-84
2023/04/15 06:27:49;;;;;;;9.60;7.60;;;;;;;10.11;71.20;98121.72;4389890;32;34586;-84
2023/04/15 06:30:18;;;;;;;10.88;8.27;;;;;;;10.03;71.65;98118.28;4389164;32;35245;-85
2023/04/15 06:32:47;;;;;;;8.77;7.05;;;;;;;10.04;71.00;98124.31;4389886;32;35471;-86
2023/04/15 06:35:16;;;;;;;9.75;7.82;;;;;;;10.18;70.39;98122.56;4389197;32;34496;-86
2023/04/15 06:37:45;;;;;;;10.13;7.55;;;;;;;10.27;71.32;98132.09;4376120;32;34639;-84
2023/04/15 06:40:14;;;;;;;12.48;7.45;;;;;;;10.44;70.18;98130.31;4386983;32;34491;-84
2023/04/15 06:42:43;;;;;;;12.45;8.63;;;;;;;10.61;69.63;98133.72;4390476;32;34062;-85
2023/04/15 06:45:12;;;;;;;13.38;8.40;;;;;;;10.66;69.21;98129.38;4380427;32;34142;-85
2023/04/15 06:47:41;;;;;;;11.60;8.38;;;;;;;10.68;69.08;98135.41;4385694;32;35524;-86
2023/04/15 06:50:10;;;;;;;10.38;6.20;;;;;;;10.59;69.00;98125.06;4379279;32;33035;-85
2023/04/15 06:52:39;;;;;;;9.85;6.85;;;;;;;10.88;67.06;98137.06;4375190;32;34791;-85
2023/04/15 06:55:09;;;;;;;12.30;7.80;;;;;;;11.02;66.87;98134.37;4387365;32;34501;-85
2023/04/15 06:57:37;;;;;;;11.35;7.45;;;;;;;11.02;67.36;98130.03;4386408;32;34682;-85
2023/04/15 07:00:07;;;;;;;10.48;7.95;;;;;;;11.11;66.82;98130.00;4376732;32;34429;-84
2023/04/15 07:02:36;;;;;;;14.18;8.65;;;;;;;11.28;66.50;98131.63;4387132;32;34020;-86
2023/04/15 07:05:05;;;;;;;13.77;8.23;;;;;;;11.17;66.69;98134.28;4385222;32;35648;-85
2023/04/15 07:07:35;;;;;;;13.55;8.85;;;;;;;11.05;66.51;98132.63;4390132;32;33225;-85
2023/04/15 07:10:04;;;;;;;16.92;8.60;;;;;;;11.12;65.97;98136.91;4391018;32;34419;-86
2023/04/15 07:12:34;;;;;;;12.10;7.37;;;;;;;10.82;66.26;98131.88;4377428;32;33969;-84
2023/04/15 07:15:04;;;;;;;11.95;6.55;;;;;;;10.88;65.00;98137.91;4371865;32;34456;-86
2023/04/15 07:17:33;;;;;;;13.07;6.85;;;;;;;10.62;63.57;98135.44;4391195;32;34522;-85
2023/04/15 07:20:03;;;;;;;11.25;7.30;;;;;;;10.85;64.25;98142.25;4390858;32;34219;-85
2023/04/15 07:22:33;;;;;;;11.35;5.90;;;;;;;11.00;64.13;98149.94;4390471;32;34050;-85
2023/04/15 07:25:01;;;;;;;11.60;7.15;;;;;;;11.32;63.01;98141.09;4389225;32;34481;-85
2023/04/15 07:27:30;;;;;;;12.20;6.10;;;;;;;11.64;62.53;98149.53;4375886;32;35359;-85
2023/04/15 07:29:59;;;;;;;11.18;5.68;;;;;;;11.51;63.18;98152.22;4361967;32;34600;-85
2023/04/15 07:32:28;;;;;;;10.80;5.32;;;;;;;11.42;62.98;98147.97;4370334;32;34447;-85
2023/04/15 07:34:57;;;;;;;13.65;5.80;;;;;;;11.40;61.80;98141.91;4375977;32;34512;-85
2023/04/15 07:37:27;;;;;;;10.80;6.03;;;;;;;11.73;61.33;98145.12;4375653;32;34506;-85
2023/04/15 07:39:56;;;;;;;10.32;5.55;;;;;;;11.96;59.95;98142.38;4362483;32;35094;-85
2023/04/15 07:42:24;;;;;;;11.95;7.68;;;;;;;11.95;59.43;98140.66;4387813;32;33908;-86
2023/04/15 07:44:53;;;;;;;12.88;8.23;;;;;;;12.12;58.63;98141.34;4370929;32;34098;-85
2023/04/15 07:47:22;;;;;;;15.38;9.75;;;;;;;11.98;59.64;98144.09;4390183;32;34484;-86
2023/04/15 07:49:52;;;;;;;13.32;8.95;;;;;;;11.81;60.83;98149.37;4390577;32;35004;-85
2023/04/15 07:52:21;;;;;;;15.65;8.85;;;;;;;11.71;60.99;98145.16;4375590;32;34872;-85
2023/04/15 07:54:49;;;;;;;11.95;7.82;;;;;;;11.86;61.16;98149.41;4390702;32;34572;-85
2023/04/15 07:57:18;;;;;;;11.38;7.15;;;;;;;11.89;60.89;98142.44;4376254;32;34334;-85
2023/04/15 07:59:47;;;;;;;11.40;6.28;;;;;;;12.00;59.74;98144.91;4375360;32;34502;-86
2023/04/15 08:02:17;;;;;;;9.85;6.78;;;;;;;11.96;60.22;98147.56;4385767;32;33214;-86
2023/04/15 08:04:46;;;;;;;12.27;5.93;;;;;;;11.69;60.07;98150.34;4384011;32;35647;-85
2023/04/15 08:07:15;;;;;;;10.20;5.57;;;;;;;11.61;61.10;98162.53;4388978;32;35453;-85
2023/04/15 08:09:45;;;;;;;7.95;5.82;;;;;;;11.42;60.38;98156.59;4390621;32;34365;-86
2023/04/15 08:12:14;;;;;;;9.45;4.93;;;;;;;11.43;61.69;98167.84;4378758;32;34022;-86
2023/04/15 08:14:43;;;;;;;7.32;4.25;;;;;;;11.53;62.70;98159.13;4361965;32;34448;-86
2023/04/15 08:17:12;;;;;;;7.65;4.25;;;;;;;11.53;64.02;98163.47;4375425;32;34553;-86
2023/04/15 08:19:41;;;;;;;6.75;4.40;;;;;;;11.56;63.99;98172.09;4375617;32;34495;-86
2023/04/15 08:22:11;;;;;;;7.15;4.37;;;;;;;11.82;63.96;98165.81;4376617;32;34213;-86
2023/04/15 08:24:46;;;;;;;;;;;;;;;12.35;61.50;98173.16;4375685;32;34223;-85
2023/04/15 08:27:14;;;;;;;6.78;3.20;;;;;;;12.09;61.62;98163.03;4376768;32;34856;-83
2023/04/15 08:29:44;;;;;;;5.10;2.65;;;;;;;12.38;60.42;98167.06;4387448;32;34589;-86
2023/04/15 08:32:13;;;;;;;3.75;2.10;;;;;;;12.41;59.59;98174.81;4371578;32;34807;-85
2023/04/15 08:34:42;;;;;;;4.35;2.12;;;;;;;12.44;58.99;98177.41;4390111;32;34492;-86
2023/04/15 08:37:11;;;;;;;4.70;2.15;;;;;;;11.94;60.16;98170.97;4368122;32;34624;-83
2023/04/15 08:39:40;;;;;;;3.42;1.87;;;;;;;11.98;58.46;98175.25;4378051;32;35202;-85
2023/04/15 08:42:11;;;;;;;5.45;2.10;;;;;;;11.72;59.72;98174.56;4383048;32;33658;-83
2023/04/15 08:44:40;;;;;;;4.00;2.22;;;;;;;12.11;58.44;98174.25;4370680;32;34150;-83
2023/04/15 08:47:12;;;;;;;4.60;2.40;;;;;;;11.85;59.13;98174.47;4372153;32;34674;-83
2023/04/15 08:49:42;;;;;;;3.80;2.05;;;;;;;12.30;58.45;98174.06;4389784;32;35149;-86
2023/04/15 08:52:11;;;;;;;4.07;2.58;;;;;;;12.42;58.22;98173.94;4371686;32;34014;-83
2023/04/15 08:54:41;;;;;;;6.65;2.35;;;;;;;12.25;60.54;98176.72;4376509;32;34539;-85
2023/04/15 08:57:09;;;;;;;6.47;2.80;;;;;;;12.34;58.49;98175.75;4389655;32;34600;-82
2023/04/15 08:59:39;;;;;;;6.97;4.32;;;;;;;11.94;57.60;98189.13;4389699;32;35202;-84
2023/04/15 09:02:08;;;;;;;6.00;3.85;;;;;;;11.91;59.05;98183.97;4387858;32;33687;-84
2023/04/15 09:04:37;;;;;;;6.90;3.60;;;;;;;12.20;57.84;98180.22;4368606;32;34181;-84
2023/04/15 09:07:06;;;;;;;6.18;3.75;;;;;;;12.39;58.07;98182.66;4370224;32;34158;-85
2023/04/15 09:09:36;;;;;;;6.15;4.00;;;;;;;12.38;57.65;98177.44;4378653;32;34696;-85
2023/04/15 09:12:05;;;;;;;5.55;3.35;;;;;;;11.86;60.38;98185.75;4388665;32;33911;-83
2023/04/15 09:14:34;;;;;;;6.35;3.58;;;;;;;12.35;59.67;98172.28;4375367;32;34502;-84
2023/04/15 09:17:03;;;;;;;6.07;3.55;;;;;;;12.62;60.40;98184.16;4380412;32;34641;-83
2023/04/15 09:19:33;;;;;;;6.75;3.53;;;;;;;12.82;60.28;98176.09;4361236;32;35142;-84
2023/04/15 09:22:02;;;;;;;6.85;3.70;;;;;;;12.83;59.79;98190.81;4381945;32;34786;-84
2023/04/15 09:24:39;;;;;;;3.80;2.12;;;;;;;13.08;60.12;98187.03;4360372;32;34328;-83
2023/04/15 09:27:08;;;;;;;3.80;1.98;;;;;;;12.84;57.34;98185.63;4377897;32;35506;-83
2023/04/15 09:29:37;;;;;;;3.65;1.45;;;;;;;12.57;59.32;98184.19;4387819;32;34349;-81
2023/04/15 09:32:13;;;;;;;3.17;1.52;;;;;;;12.48;57.92;98173.03;4380893;32;34098;-84
2023/04/15 09:34:42;;;;;;;3.33;1.67;;;;;;;12.57;57.20;98185.91;4375913;32;34804;-83
2023/04/15 09:37:12;;;;;;;4.15;1.77;;;;;;;12.67;59.46;98184.94;4386829;32;34413;-84
2023/04/15 09:39:59;;;;;;;2.95;1.60;;;;;;;12.59;59.20;98182.44;4389119;32;35207;-85
2023/04/15 09:42:28;;;;;;;4.03;1.77;;;;;;;12.83;58.62;98188.22;4375788;32;34116;-85
2023/04/15 09:45:08;;;;;;;2.42;1.02;;;;;;;12.35;60.01;98190.47;4383350;32;34482;-84
2023/04/15 09:47:37;;;;;;;2.85;1.52;;;;;;;12.44;58.60;98189.53;4366986;32;34692;-84
2023/04/15 09:50:06;;;;;;;6.05;2.28;;;;;;;11.82;61.50;98205.66;4381872;32;34565;-83
2023/04/15 09:52:41;;;;;;;4.57;2.00;;;;;;;12.16;61.27;98201.06;4361702;32;34666;-83
2023/04/15 09:55:12;;;;;;;4.18;2.08;;;;;;;12.36;61.03;98200.88;4360648;32;34157;-83
2023/04/15 09:57:41;;;;;;;5.32;2.65;;;;;;;11.90;62.45;98216.87;4375880;32;34264;-84
2023/04/15 10:00:10;;;;;;;4.87;2.10;;;;;;;12.00;62.14;98207.25;4388975;32;34865;-83
2023/04/15 10:02:40;;;;;;;6.18;2.78;;;;;;;11.93;60.89;98213.38;4389313;32;34121;-83
2023/04/15 10:05:10;;;;;;;4.05;1.90;;;;;;;12.04;60.84;98214.16;4388315;32;35604;-83
2023/04/15 10:07:41;;;;;;;4.07;1.80;;;;;;;11.91;60.79;98217.72;4382369;32;34147;-83
2023/04/15 10:10:10;;;;;;;4.53;1.60;;;;;;;12.22;60.66;98218.31;4377773;32;34441;-82
2023/04/15 10:12:40;;;;;;;7.07;2.53;;;;;;;11.91;60.34;98210.78;4384109;32;34792;-83
2023/04/15 10:15:15;;;;;;;3.72;1.90;;;;;;;12.16;60.96;98218.41;4362217;32;34425;-82
2023/04/15 10:17:45;;;;;;;2.87;1.30;;;;;;;12.21;61.71;98220.97;4377555;32;35554;-83
2023/04/15 10:20:13;;;;;;;2.03;1.10;;;;;;;12.24;60.05;98215.72;4368010;32;34148;-82
2023/04/15 10:22:44;;;;;;;4.55;1.70;;;;;;;12.23;60.77;98211.38;4367220;32;33622;-83
2023/04/15 10:25:14;;;;;;;3.95;2.00;;;;;;;12.02;62.12;98215.91;4375137;32;34445;-83
2023/04/15 10:27:43;;;;;;;4.10;1.95;;;;;;;12.00;63.94;98222.84;4364932;32;34260;-83
2023/04/15 10:30:12;;;;;;;3.85;2.15;;;;;;;12.14;63.53;98225.34;4374433;32;35245;-83
2023/04/15 10:32:41;;;;;;;3.87;1.85;;;;;;;11.74;63.76;98222.12;4387947;32;33889;-83
2023/04/15 10:35:10;;;;;;;4.85;2.12;;;;;;;12.07;63.51;98227.13;4380222;32;34492;-83
2023/04/15 10:37:39;;;;;;;3.60;1.80;;;;;;;12.09;63.78;98227.97;4377673;32;35526;-83
2023/04/15 10:40:30;;;;;;;2.95;1.25;;;;;;;11.83;62.92;98229.88;4377656;32;34347;-84
2023/04/15 10:43:00;;;;;;;2.78;1.42;;;;;;;11.77;64.97;98235.09;4376316;32;33836;-83
2023/04/15 10:45:35;;;;;;;3.33;1.58;;;;;;;11.72;63.98;98229.97;4383458;32;34354;-84
2023/04/15 10:48:07;;;;;;;2.40;1.40;;;;;;;11.50;64.11;98231.81;4365586;32;35249;-84
2023/04/15 10:50:36;;;;;;;2.90;1.02;;;;;;;11.68;64.20;98236.91;4368528;32;35379;-83
2023/04/15 10:53:09;;;;;;;3.30;1.40;;;;;;;11.87;62.78;98235.06;4385005;32;34984;-84
2023/04/15 10:55:37;;;;;;;2.90;1.42;;;;;;;11.55;64.29;98239.56;4365371;32;35204;-83
2023/04/15 10:58:08;;;;;;;5.18;2.30;;;;;;;11.73;64.47;98243.78;4386644;32;34736;-83
2023/04/15 11:00:38;;;;;;;16.95;8.40;;;;;;;11.51;66.23;98237.88;4385098;32;34523;-83
2023/04/15 11:03:08;;;;;;;4.72;2.30;;;;;;;11.59;67.85;98246.47;4385936;32;33713;-84
2023/04/15 11:05:40;;;;;;;4.50;2.22;;;;;;;11.75;66.71;98242.06;4387899;32;34501;-86
2023/04/15 11:08:10;;;;;;;3.85;2.62;;;;;;;11.57;67.35;98251.69;4380380;32;36495;-85
2023/04/15 11:10:39;;;;;;;2.70;1.25;;;;;;;11.67;66.01;98239.53;4383271;32;35122;-86
2023/04/15 11:13:10;;;;;;;2.25;1.08;;;;;;;11.91;64.24;98239.38;4384793;32;34867;-83
2023/04/15 11:15:39;;;;;;;11.48;9.95;;;;;;;11.90;64.65;98247.19;4387560;32;34533;-83
2023/04/15 11:18:11;;;;;;;2.62;1.20;;;;;;;11.84;64.67;98236.81;4386807;32;35237;-83
2023/04/15 11:20:46;;;;;;;3.17;1.73;;;;;;;11.54;65.54;98237.84;4381836;32;35209;-82
2023/04/15 11:23:18;;;;;;;3.53;1.70;;;;;;;11.58;66.25;98240.41;4365659;32;33805;-83
2023/04/15 11:25:47;;;;;;;2.97;1.48;;;;;;;11.68;66.78;98242.09;4364746;32;34339;-82
2023/04/15 11:28:16;;;;;;;2.40;1.20;;;;;;;11.89;64.87;98235.94;4377490;32;34695;-83
2023/04/15 11:30:45;;;;;;;3.22;1.50;;;;;;;11.79;64.34;98243.75;4387602;32;35822;-82
2023/04/15 11:33:14;;;;;;;5.30;2.05;;;;;;;12.06;66.12;98250.53;4388392;32;32614;-84
2023/04/15 11:35:42;;;;;;;3.85;1.60;;;;;;;12.04;65.22;98244.47;4389889;32;34455;-84
2023/04/15 11:38:12;;;;;;;2.50;1.15;;;;;;;12.32;64.29;98239.91;4388073;32;35503;-83
2023/04/15 11:40:42;;;;;;;4.15;1.40;;;;;;;12.10;62.87;98242.69;4371386;32;35348;-84
2023/04/15 11:43:19;;;;;;;3.42;2.03;;;;;;;12.15;64.21;98238.31;4377631;32;34986;-84